createdAt,value
2018-07-26T00:00:11.088Z,0
2018-07-26T00:01:13.422Z,0
2018-07-26T00:02:15.473Z,0
2018-07-26T00:03:18.195Z,0
2018-07-26T00:04:20.621Z,0
2018-07-26T00:05:22.669Z,0
2018-07-26T00:06:24.715Z,0
2018-07-26T00:07:26.757Z,0
2018-07-26T00:08:28.808Z,0
2018-07-26T00:09:30.855Z,0
2018-07-26T00:10:32.897Z,0
2018-07-26T00:11:34.943Z,0
2018-07-26T00:12:36.998Z,0
2018-07-26T00:13:39.047Z,0
2018-07-26T00:14:41.380Z,0
2018-07-26T00:15:44.101Z,0
2018-07-26T00:16:46.146Z,0
2018-07-26T00:17:48.194Z,0
2018-07-26T00:18:50.536Z,0
2018-07-26T00:19:52.574Z,0
2018-07-26T00:20:54.910Z,0
2018-07-26T00:21:56.958Z,0
2018-07-26T00:22:59.000Z,0
2018-07-26T00:24:01.065Z,0
2018-07-26T00:25:03.402Z,0
2018-07-26T00:26:05.450Z,0
2018-07-26T00:27:07.493Z,0
2018-07-26T00:28:09.553Z,0
2018-07-26T00:29:11.596Z,0
2018-07-26T00:30:13.644Z,0
2018-07-26T00:31:15.992Z,0
2018-07-26T00:32:18.019Z,0
2018-07-26T00:33:20.070Z,0
2018-07-26T00:34:22.120Z,0
2018-07-26T00:35:24.170Z,0
2018-07-26T00:36:26.203Z,0
2018-07-26T00:37:28.256Z,0
2018-07-26T00:38:30.306Z,0
2018-07-26T00:39:32.634Z,0
2018-07-26T00:40:34.693Z,0
2018-07-26T00:41:36.741Z,0
2018-07-26T00:42:39.067Z,0
2018-07-26T00:43:41.120Z,0
2018-07-26T00:44:43.165Z,0
2018-07-26T00:45:45.206Z,0
2018-07-26T00:46:47.252Z,0
2018-07-26T00:47:49.680Z,0
2018-07-26T00:48:52.116Z,0
2018-07-26T00:49:54.423Z,0
2018-07-26T00:50:56.771Z,0
2018-07-26T00:51:58.817Z,0
2018-07-26T00:53:00.872Z,0
2018-07-26T00:54:02.925Z,0
2018-07-26T00:55:04.969Z,0
2018-07-26T00:56:07.019Z,0
2018-07-26T00:57:09.074Z,0
2018-07-26T00:58:11.135Z,0
2018-07-26T00:59:13.170Z,0
2018-07-26T01:00:15.212Z,0
2018-07-26T01:01:17.563Z,0
2018-07-26T01:02:19.610Z,0
2018-07-26T01:03:21.660Z,0
2018-07-26T01:04:23.712Z,0
2018-07-26T01:05:25.749Z,0
2018-07-26T01:06:28.479Z,0
2018-07-26T01:07:30.528Z,0
2018-07-26T01:08:32.577Z,0
2018-07-26T01:09:35.088Z,0
2018-07-26T01:10:37.088Z,0
2018-07-26T01:11:39.461Z,0
2018-07-26T01:12:41.509Z,0
2018-07-26T01:13:43.853Z,0
2018-07-26T01:14:45.895Z,0
2018-07-26T01:15:47.942Z,0
2018-07-26T01:16:49.996Z,0
2018-07-26T01:17:52.046Z,0
2018-07-26T01:18:54.090Z,0
2018-07-26T01:19:56.524Z,0
2018-07-26T01:20:58.570Z,0
2018-07-26T01:22:00.615Z,0
2018-07-26T01:23:02.666Z,0
2018-07-26T01:24:04.710Z,0
2018-07-26T01:25:06.752Z,0
2018-07-26T01:26:09.096Z,0
2018-07-26T01:27:11.143Z,0
2018-07-26T01:28:13.186Z,0
2018-07-26T01:29:15.239Z,0
2018-07-26T01:30:17.559Z,0
2018-07-26T01:31:19.607Z,0
2018-07-26T01:32:21.651Z,0
2018-07-26T01:33:23.706Z,0
2018-07-26T01:34:26.068Z,0
2018-07-26T01:35:28.117Z,0
2018-07-26T01:36:30.163Z,0
2018-07-26T01:37:32.203Z,0
2018-07-26T01:38:34.259Z,0
2018-07-26T01:39:36.585Z,0
2018-07-26T01:40:38.632Z,0
2018-07-26T01:41:40.676Z,0
2018-07-26T01:42:43.023Z,0
2018-07-26T01:43:45.353Z,0
2018-07-26T01:44:47.689Z,0
2018-07-26T01:45:49.740Z,0
2018-07-26T01:46:52.163Z,0
2018-07-26T01:47:54.213Z,0
2018-07-26T01:48:56.643Z,0
2018-07-26T01:49:58.683Z,0
2018-07-26T01:51:01.118Z,0
2018-07-26T01:52:03.449Z,0
2018-07-26T01:53:05.497Z,0
2018-07-26T01:54:07.548Z,0
2018-07-26T01:55:09.595Z,0
2018-07-26T01:56:11.637Z,0
2018-07-26T01:57:13.684Z,0
2018-07-26T01:58:15.749Z,0
2018-07-26T01:59:18.088Z,0
2018-07-26T02:00:20.134Z,0
2018-07-26T02:01:22.568Z,0
2018-07-26T02:02:24.607Z,0
2018-07-26T02:03:26.663Z,0
2018-07-26T02:04:28.709Z,0
2018-07-26T02:05:31.035Z,0
2018-07-26T02:06:33.083Z,0
2018-07-26T02:07:35.451Z,0
2018-07-26T02:08:37.499Z,0
2018-07-26T02:09:39.825Z,0
2018-07-26T02:10:41.888Z,0
2018-07-26T02:11:44.214Z,0
2018-07-26T02:12:46.536Z,0
2018-07-26T02:13:48.591Z,0
2018-07-26T02:14:50.628Z,0
2018-07-26T02:15:52.688Z,0
2018-07-26T02:16:55.030Z,0
2018-07-26T02:17:57.465Z,0
2018-07-26T02:18:59.515Z,0
2018-07-26T02:20:01.849Z,0
2018-07-26T02:21:03.899Z,0
2018-07-26T02:22:06.330Z,0
2018-07-26T02:23:08.374Z,0
2018-07-26T02:24:10.420Z,0
2018-07-26T02:25:12.473Z,0
2018-07-26T02:26:14.518Z,0
2018-07-26T02:27:16.569Z,0
2018-07-26T02:28:18.895Z,0
2018-07-26T02:29:20.934Z,0
2018-07-26T02:30:23.339Z,0
2018-07-26T02:31:25.316Z,0
2018-07-26T02:32:27.749Z,0
2018-07-26T02:33:29.806Z,0
2018-07-26T02:34:32.805Z,0
2018-07-26T02:35:35.234Z,0
2018-07-26T02:36:37.299Z,0
2018-07-26T02:37:39.333Z,0
2018-07-26T02:38:41.663Z,0
2018-07-26T02:39:43.985Z,0
2018-07-26T02:40:46.044Z,0
2018-07-26T02:41:48.366Z,0
2018-07-26T02:42:50.411Z,0
2018-07-26T02:43:52.462Z,0
2018-07-26T02:44:55.560Z,0
2018-07-26T02:45:57.613Z,0
2018-07-26T02:46:59.943Z,0
2018-07-26T02:48:02.277Z,0
2018-07-26T02:49:04.604Z,0
2018-07-26T02:50:06.646Z,0
2018-07-26T02:51:09.366Z,0
2018-07-26T02:52:11.714Z,0
2018-07-26T02:53:13.787Z,0
2018-07-26T02:54:16.134Z,0
2018-07-26T02:55:18.179Z,0
2018-07-26T02:56:20.525Z,0
2018-07-26T02:57:22.577Z,0
2018-07-26T02:58:24.615Z,0
2018-07-26T02:59:26.952Z,0
2018-07-26T03:00:29.281Z,0
2018-07-26T03:01:31.612Z,0
2018-07-26T03:02:33.951Z,0
2018-07-26T03:03:35.996Z,0
2018-07-26T03:04:38.036Z,0
2018-07-26T03:05:40.390Z,0
2018-07-26T03:06:42.749Z,0
2018-07-26T03:07:44.795Z,0
2018-07-26T03:08:46.851Z,0
2018-07-26T03:09:48.886Z,0
2018-07-26T03:10:51.320Z,0
2018-07-26T03:11:53.364Z,0
2018-07-26T03:12:55.800Z,0
2018-07-26T03:13:57.833Z,1
2018-07-26T03:14:59.888Z,1
2018-07-26T03:16:02.914Z,1
2018-07-26T03:17:05.248Z,1
2018-07-26T03:18:07.304Z,1
2018-07-26T03:19:09.735Z,1
2018-07-26T03:20:12.164Z,1
2018-07-26T03:21:14.887Z,1
2018-07-26T03:22:16.950Z,1
2018-07-26T03:23:19.565Z,1
2018-07-26T03:24:22.003Z,2
2018-07-26T03:25:24.343Z,2
2018-07-26T03:26:26.378Z,2
2018-07-26T03:27:29.468Z,2
2018-07-26T03:28:31.800Z,2
2018-07-26T03:29:33.847Z,2
2018-07-26T03:30:36.858Z,3
2018-07-26T03:31:38.899Z,3
2018-07-26T03:32:40.947Z,3
2018-07-26T03:33:43.285Z,3
2018-07-26T03:34:45.336Z,3
2018-07-26T03:35:47.385Z,3
2018-07-26T03:36:49.430Z,4
2018-07-26T03:37:51.473Z,4
2018-07-26T03:38:53.533Z,4
2018-07-26T03:39:55.858Z,4
2018-07-26T03:40:57.902Z,4
2018-07-26T03:42:00.004Z,5
2018-07-26T03:43:02.040Z,5
2018-07-26T03:44:04.090Z,5
2018-07-26T03:45:06.135Z,5
2018-07-26T03:46:08.184Z,5
2018-07-26T03:47:10.524Z,6
2018-07-26T03:48:12.573Z,6
2018-07-26T03:49:14.623Z,6
2018-07-26T03:50:16.657Z,6
2018-07-26T03:51:18.782Z,7
2018-07-26T03:52:20.755Z,7
2018-07-26T03:53:22.804Z,7
2018-07-26T03:54:24.870Z,7
2018-07-26T03:55:26.907Z,8
2018-07-26T03:56:28.946Z,8
2018-07-26T03:57:30.991Z,8
2018-07-26T03:58:33.039Z,8
2018-07-26T03:59:35.071Z,8
2018-07-26T04:00:37.407Z,9
2018-07-26T04:01:39.754Z,9
2018-07-26T04:02:41.794Z,9
2018-07-26T04:03:43.837Z,9
2018-07-26T04:04:45.887Z,10
2018-07-26T04:05:47.938Z,10
2018-07-26T04:06:49.980Z,10
2018-07-26T04:07:52.024Z,10
2018-07-26T04:08:54.076Z,11
2018-07-26T04:09:56.122Z,11
2018-07-26T04:10:58.161Z,11
2018-07-26T04:12:00.232Z,11
2018-07-26T04:13:02.680Z,11
2018-07-26T04:14:05.125Z,12
2018-07-26T04:15:07.126Z,12
2018-07-26T04:16:22.275Z,12
2018-07-26T04:17:24.316Z,12
2018-07-26T04:18:26.749Z,13
2018-07-26T04:19:29.186Z,13
2018-07-26T04:20:31.221Z,13
2018-07-26T04:21:33.269Z,13
2018-07-26T04:22:35.315Z,14
2018-07-26T04:23:37.641Z,14
2018-07-26T04:24:39.692Z,14
2018-07-26T04:25:42.119Z,14
2018-07-26T04:26:44.549Z,14
2018-07-26T04:27:46.882Z,15
2018-07-26T04:28:48.937Z,15
2018-07-26T04:29:50.976Z,15
2018-07-26T04:30:53.021Z,15
2018-07-26T04:31:55.144Z,15
2018-07-26T04:32:57.094Z,15
2018-07-26T04:33:59.141Z,15
2018-07-26T04:35:01.571Z,15
2018-07-26T04:36:03.895Z,15
2018-07-26T04:37:06.327Z,16
2018-07-26T04:38:08.375Z,16
2018-07-26T04:39:10.420Z,16
2018-07-26T04:40:12.472Z,16
2018-07-26T04:41:14.522Z,16
2018-07-26T04:42:17.228Z,16
2018-07-26T04:43:19.660Z,17
2018-07-26T04:44:21.704Z,17
2018-07-26T04:45:24.438Z,17
2018-07-26T04:46:26.486Z,17
2018-07-26T04:47:28.529Z,17
2018-07-26T04:48:30.582Z,18
2018-07-26T04:49:32.617Z,18
2018-07-26T04:50:34.672Z,18
2018-07-26T04:51:37.019Z,18
2018-07-26T04:52:39.377Z,18
2018-07-26T04:53:41.413Z,19
2018-07-26T04:54:43.518Z,19
2018-07-26T04:55:45.514Z,19
2018-07-26T04:56:47.553Z,19
2018-07-26T04:57:50.001Z,19
2018-07-26T04:58:52.040Z,19
2018-07-26T04:59:54.092Z,20
2018-07-26T05:00:56.132Z,20
2018-07-26T05:01:58.185Z,20
2018-07-26T05:03:00.228Z,20
2018-07-26T05:04:02.275Z,20
2018-07-26T05:05:04.322Z,20
2018-07-26T05:06:06.356Z,21
2018-07-26T05:07:08.411Z,21
2018-07-26T05:08:10.491Z,21
2018-07-26T05:09:12.492Z,21
2018-07-26T05:10:14.536Z,21
2018-07-26T05:11:16.586Z,22
2018-07-26T05:12:18.631Z,22
2018-07-26T05:13:20.680Z,22
2018-07-26T05:14:22.727Z,22
2018-07-26T05:15:24.768Z,22
2018-07-26T05:16:26.812Z,22
2018-07-26T05:17:28.865Z,23
2018-07-26T05:18:30.932Z,23
2018-07-26T05:19:32.952Z,23
2018-07-26T05:20:34.997Z,23
2018-07-26T05:21:37.037Z,23
2018-07-26T05:22:39.096Z,23
2018-07-26T05:23:41.141Z,24
2018-07-26T05:24:43.571Z,24
2018-07-26T05:25:45.614Z,24
2018-07-26T05:26:47.668Z,24
2018-07-26T05:27:50.511Z,24
2018-07-26T05:28:52.498Z,24
2018-07-26T05:29:54.550Z,25
2018-07-26T05:30:56.585Z,25
2018-07-26T05:31:59.213Z,25
2018-07-26T05:33:01.261Z,25
2018-07-26T05:34:03.691Z,25
2018-07-26T05:35:05.726Z,25
2018-07-26T05:36:08.058Z,25
2018-07-26T05:37:10.104Z,26
2018-07-26T05:38:12.155Z,26
2018-07-26T05:39:14.213Z,26
2018-07-26T05:40:16.253Z,26
2018-07-26T05:41:18.975Z,26
2018-07-26T05:42:21.317Z,26
2018-07-26T05:43:23.368Z,26
2018-07-26T05:44:25.410Z,26
2018-07-26T05:45:27.457Z,26
2018-07-26T05:46:29.505Z,26
2018-07-26T05:47:31.945Z,26
2018-07-26T05:48:34.000Z,26
2018-07-26T05:49:36.047Z,27
2018-07-26T05:50:38.371Z,27
2018-07-26T05:51:40.429Z,27
2018-07-26T05:52:42.477Z,27
2018-07-26T05:53:44.526Z,27
2018-07-26T05:54:46.581Z,27
2018-07-26T05:55:48.620Z,28
2018-07-26T05:56:50.668Z,28
2018-07-26T05:57:52.723Z,28
2018-07-26T05:58:55.084Z,28
2018-07-26T05:59:57.131Z,28
2018-07-26T06:00:59.173Z,28
2018-07-26T06:02:01.511Z,29
2018-07-26T06:03:03.564Z,29
2018-07-26T06:04:05.605Z,29
2018-07-26T06:05:07.656Z,29
2018-07-26T06:06:10.097Z,29
2018-07-26T06:07:12.144Z,29
2018-07-26T06:08:14.188Z,30
2018-07-26T06:09:16.240Z,30
2018-07-26T06:10:18.576Z,30
2018-07-26T06:11:20.625Z,30
2018-07-26T06:12:22.988Z,30
2018-07-26T06:13:25.027Z,30
2018-07-26T06:14:27.074Z,31
2018-07-26T06:15:29.126Z,31
2018-07-26T06:16:31.174Z,31
2018-07-26T06:17:33.219Z,31
2018-07-26T06:18:35.263Z,31
2018-07-26T06:19:37.304Z,31
2018-07-26T06:20:39.429Z,32
2018-07-26T06:21:41.409Z,32
2018-07-26T06:22:43.748Z,32
2018-07-26T06:23:45.791Z,32
2018-07-26T06:24:48.140Z,32
2018-07-26T06:25:50.187Z,32
2018-07-26T06:26:52.517Z,33
2018-07-26T06:27:54.614Z,33
2018-07-26T06:28:56.611Z,33
2018-07-26T06:29:58.662Z,33
2018-07-26T06:31:00.710Z,33
2018-07-26T06:32:03.155Z,33
2018-07-26T06:33:05.197Z,34
2018-07-26T06:34:07.252Z,34
2018-07-26T06:35:09.306Z,34
2018-07-26T06:36:11.351Z,34
2018-07-26T06:37:13.404Z,34
2018-07-26T06:38:15.746Z,34
2018-07-26T06:39:17.797Z,35
2018-07-26T06:40:19.848Z,35
2018-07-26T06:41:21.883Z,35
2018-07-26T06:42:23.940Z,35
2018-07-26T06:43:25.986Z,35
2018-07-26T06:44:28.036Z,35
2018-07-26T06:45:30.095Z,36
2018-07-26T06:46:32.140Z,36
2018-07-26T06:47:34.189Z,36
2018-07-26T06:48:36.247Z,36
2018-07-26T06:49:38.298Z,36
2018-07-26T06:50:40.630Z,36
2018-07-26T06:51:42.676Z,36
2018-07-26T06:52:45.004Z,37
2018-07-26T06:53:47.053Z,37
2018-07-26T06:54:49.112Z,37
2018-07-26T06:55:51.462Z,37
2018-07-26T06:56:53.506Z,37
2018-07-26T06:57:55.571Z,37
2018-07-26T06:58:57.900Z,38
2018-07-26T06:59:59.953Z,38
2018-07-26T07:01:02.013Z,38
2018-07-26T07:02:04.441Z,38
2018-07-26T07:03:06.493Z,38
2018-07-26T07:04:08.548Z,39
2018-07-26T07:05:10.897Z,39
2018-07-26T07:06:12.944Z,39
2018-07-26T07:07:15.004Z,39
2018-07-26T07:08:17.381Z,39
2018-07-26T07:09:19.679Z,40
2018-07-26T07:10:21.740Z,40
2018-07-26T07:11:23.786Z,40
2018-07-26T07:12:25.838Z,40
2018-07-26T07:13:27.891Z,41
2018-07-26T07:14:30.256Z,41
2018-07-26T07:15:32.308Z,41
2018-07-26T07:16:34.365Z,41
2018-07-26T07:17:36.417Z,41
2018-07-26T07:18:38.870Z,42
2018-07-26T07:19:41.296Z,42
2018-07-26T07:20:43.350Z,42
2018-07-26T07:21:45.403Z,42
2018-07-26T07:22:47.842Z,43
2018-07-26T07:23:50.192Z,43
2018-07-26T07:24:52.544Z,43
2018-07-26T07:25:54.592Z,43
2018-07-26T07:26:56.643Z,43
2018-07-26T07:27:58.989Z,43
2018-07-26T07:29:01.044Z,43
2018-07-26T07:30:03.477Z,43
2018-07-26T07:31:05.539Z,44
2018-07-26T07:32:07.599Z,44
2018-07-26T07:33:09.691Z,45
2018-07-26T07:34:12.374Z,44
2018-07-26T07:35:14.417Z,44
2018-07-26T07:36:16.468Z,44
2018-07-26T07:37:18.521Z,45
2018-07-26T07:38:20.590Z,45
2018-07-26T07:39:22.628Z,45
2018-07-26T07:40:24.683Z,45
2018-07-26T07:41:26.776Z,45
2018-07-26T07:42:28.784Z,46
2018-07-26T07:43:31.411Z,46
2018-07-26T07:44:33.846Z,47
2018-07-26T07:45:35.896Z,46
2018-07-26T07:46:38.017Z,47
2018-07-26T07:47:40.054Z,47
2018-07-26T07:48:42.057Z,47
2018-07-26T07:49:44.111Z,47
2018-07-26T07:50:46.461Z,48
2018-07-26T07:51:48.501Z,48
2018-07-26T07:52:50.600Z,48
2018-07-26T07:53:52.610Z,49
2018-07-26T07:54:55.330Z,49
2018-07-26T07:55:57.383Z,49
2018-07-26T07:56:59.441Z,49
2018-07-26T07:58:01.787Z,50
2018-07-26T07:59:03.849Z,50
2018-07-26T08:00:05.896Z,50
2018-07-26T08:01:08.229Z,50
2018-07-26T08:02:10.278Z,51
2018-07-26T08:03:12.623Z,51
2018-07-26T08:04:14.664Z,51
2018-07-26T08:05:17.144Z,52
2018-07-26T08:06:19.184Z,52
2018-07-26T08:07:21.241Z,52
2018-07-26T08:08:23.299Z,53
2018-07-26T08:09:25.348Z,54
2018-07-26T08:10:27.402Z,53
2018-07-26T08:11:29.842Z,54
2018-07-26T08:12:31.925Z,54
2018-07-26T08:13:34.245Z,54
2018-07-26T08:14:36.875Z,54
2018-07-26T08:15:38.933Z,54
2018-07-26T08:16:40.980Z,55
2018-07-26T08:17:43.043Z,55
2018-07-26T08:18:45.385Z,55
2018-07-26T08:19:47.727Z,55
2018-07-26T08:20:49.767Z,56
2018-07-26T08:21:52.120Z,56
2018-07-26T08:22:54.179Z,56
2018-07-26T08:23:56.239Z,56
2018-07-26T08:24:58.305Z,57
2018-07-26T08:26:00.355Z,58
2018-07-26T08:27:02.408Z,79
2018-07-26T08:28:04.469Z,113
2018-07-26T08:29:06.529Z,119
2018-07-26T08:30:08.579Z,111
2018-07-26T08:31:10.635Z,113
2018-07-26T08:32:12.996Z,112
2018-07-26T08:33:15.349Z,116
2018-07-26T08:34:17.404Z,111
2018-07-26T08:35:19.457Z,113
2018-07-26T08:36:21.515Z,115
2018-07-26T08:37:23.555Z,129
2018-07-26T08:38:25.903Z,192
2018-07-26T08:39:27.955Z,253
2018-07-26T08:40:30.005Z,262
2018-07-26T08:41:32.072Z,295
2018-07-26T08:42:34.129Z,310
2018-07-26T08:43:36.203Z,300
2018-07-26T08:44:38.556Z,305
2018-07-26T08:45:40.624Z,324
2018-07-26T08:46:42.685Z,328
2018-07-26T08:47:44.786Z,303
2018-07-26T08:48:47.551Z,304
2018-07-26T08:49:49.593Z,304
2018-07-26T08:50:51.654Z,296
2018-07-26T08:51:53.708Z,312
2018-07-26T08:52:55.771Z,315
2018-07-26T08:53:57.811Z,297
2018-07-26T08:55:00.169Z,294
2018-07-26T08:56:02.230Z,289
2018-07-26T08:57:04.571Z,287
2018-07-26T08:58:06.644Z,266
2018-07-26T08:59:08.981Z,259
2018-07-26T09:00:11.031Z,255
2018-07-26T09:01:13.142Z,247
2018-07-26T09:02:15.155Z,246
2018-07-26T09:03:17.205Z,252
2018-07-26T09:04:22.268Z,270
2018-07-26T09:05:24.320Z,297
2018-07-26T09:06:26.380Z,315
2018-07-26T09:07:28.442Z,314
2018-07-26T09:08:30.889Z,330
2018-07-26T09:09:32.947Z,342
2018-07-26T09:10:34.992Z,320
2018-07-26T09:11:37.482Z,316
2018-07-26T09:12:39.475Z,344
2018-07-26T09:13:41.534Z,345
2018-07-26T09:14:44.272Z,348
2018-07-26T09:15:46.332Z,353
2018-07-26T09:16:48.390Z,344
2018-07-26T09:17:50.446Z,340
2018-07-26T09:18:52.518Z,345
2018-07-26T09:19:54.575Z,341
2018-07-26T09:20:56.635Z,336
2018-07-26T09:21:58.741Z,322
2018-07-26T09:23:00.804Z,317
2018-07-26T09:24:02.871Z,320
2018-07-26T09:25:05.211Z,332
2018-07-26T09:26:07.290Z,333
2018-07-26T09:27:09.321Z,336
2018-07-26T09:28:11.387Z,339
2018-07-26T09:29:13.737Z,337
2018-07-26T09:30:16.473Z,321
2018-07-26T09:31:18.547Z,351
2018-07-26T09:32:20.600Z,383
2018-07-26T09:33:23.125Z,390
2018-07-26T09:34:25.517Z,375
2018-07-26T09:35:28.093Z,409
2018-07-26T09:36:30.108Z,369
2018-07-26T09:37:32.170Z,330
2018-07-26T09:38:34.224Z,325
2018-07-26T09:39:36.282Z,306
2018-07-26T09:40:38.635Z,312
2018-07-26T09:41:40.701Z,327
2018-07-26T09:42:43.053Z,379
2018-07-26T09:43:45.415Z,401
2018-07-26T09:44:47.477Z,389
2018-07-26T09:45:49.541Z,342
2018-07-26T09:46:51.607Z,304
2018-07-26T09:47:53.682Z,303
2018-07-26T09:48:57.778Z,338
2018-07-26T09:49:59.869Z,374
2018-07-26T09:51:01.927Z,365
2018-07-26T09:52:04.007Z,369
2018-07-26T09:53:06.348Z,367
2018-07-26T09:54:08.415Z,335
2018-07-26T09:55:10.487Z,332
2018-07-26T09:56:12.537Z,350
2018-07-26T09:57:14.900Z,353
2018-07-26T09:58:17.264Z,369
2018-07-26T09:59:19.334Z,371
2018-07-26T10:00:21.854Z,364
2018-07-26T10:01:23.899Z,385
2018-07-26T10:02:25.965Z,403
2018-07-26T10:03:28.031Z,399
2018-07-26T10:04:30.106Z,405
2018-07-26T10:05:32.177Z,423
2018-07-26T10:06:34.245Z,365
2018-07-26T10:07:36.317Z,344
2018-07-26T10:08:38.381Z,369
2018-07-26T10:09:40.507Z,406
2018-07-26T10:10:42.574Z,399
2018-07-26T10:11:44.635Z,387
2018-07-26T10:12:46.710Z,439
2018-07-26T10:13:48.783Z,446
2018-07-26T10:14:50.851Z,447
2018-07-26T10:15:53.236Z,387
2018-07-26T10:16:55.589Z,376
2018-07-26T10:17:57.656Z,432
2018-07-26T10:19:00.013Z,423
2018-07-26T10:20:02.435Z,413
2018-07-26T10:21:04.461Z,403
2018-07-26T10:22:06.912Z,401
2018-07-26T10:23:08.980Z,414
2018-07-26T10:24:11.357Z,425
2018-07-26T10:25:13.420Z,439
2018-07-26T10:26:15.495Z,383
2018-07-26T10:27:17.564Z,414
2018-07-26T10:28:19.624Z,405
2018-07-26T10:29:21.703Z,398
2018-07-26T10:30:23.767Z,403
2018-07-26T10:31:25.836Z,424
2018-07-26T10:32:27.900Z,405
2018-07-26T10:33:29.988Z,403
2018-07-26T10:34:32.050Z,411
2018-07-26T10:35:34.403Z,419
2018-07-26T10:36:36.855Z,414
2018-07-26T10:37:39.205Z,414
2018-07-26T10:38:41.284Z,418
2018-07-26T10:39:43.641Z,402
2018-07-26T10:40:45.699Z,427
2018-07-26T10:41:48.049Z,427
2018-07-26T10:42:50.124Z,414
2018-07-26T10:43:52.190Z,435
2018-07-26T10:44:54.263Z,446
2018-07-26T10:45:56.719Z,431
2018-07-26T10:46:58.782Z,429
2018-07-26T10:48:00.851Z,445
2018-07-26T10:49:02.922Z,415
2018-07-26T10:50:05.052Z,426
2018-07-26T10:51:07.052Z,465
2018-07-26T10:52:09.118Z,455
2018-07-26T10:53:11.179Z,424
2018-07-26T10:54:13.256Z,425
2018-07-26T10:55:15.325Z,468
2018-07-26T10:56:17.774Z,450
2018-07-26T10:57:19.838Z,428
2018-07-26T10:58:22.308Z,399
2018-07-26T10:59:24.372Z,405
2018-07-26T11:00:27.311Z,418
2018-07-26T11:01:29.692Z,414
2018-07-26T11:02:31.759Z,409
2018-07-26T11:03:33.826Z,405
2018-07-26T11:04:35.892Z,402
2018-07-26T11:05:37.961Z,396
2018-07-26T11:06:40.046Z,398
2018-07-26T11:07:42.106Z,365
2018-07-26T11:08:44.174Z,384
2018-07-26T11:09:46.243Z,398
2018-07-26T11:10:48.302Z,390
2018-07-26T11:11:50.381Z,402
2018-07-26T11:12:52.449Z,410
2018-07-26T11:13:54.517Z,405
2018-07-26T11:14:57.007Z,422
2018-07-26T11:15:59.057Z,410
2018-07-26T11:17:01.128Z,384
2018-07-26T11:18:03.197Z,384
2018-07-26T11:19:05.390Z,399
2018-07-26T11:20:07.332Z,430
2018-07-26T11:21:09.397Z,428
2018-07-26T11:22:11.473Z,429
2018-07-26T11:23:13.533Z,427
2018-07-26T11:24:15.673Z,436
2018-07-26T11:25:17.665Z,426
2018-07-26T11:26:19.731Z,413
2018-07-26T11:27:21.816Z,419
2018-07-26T11:28:23.886Z,427
2018-07-26T11:29:26.349Z,410
2018-07-26T11:30:28.400Z,392
2018-07-26T11:31:30.477Z,419
2018-07-26T11:32:32.542Z,416
2018-07-26T11:33:34.617Z,416
2018-07-26T11:34:36.978Z,436
2018-07-26T11:35:39.035Z,440
2018-07-26T11:36:41.108Z,449
2018-07-26T11:37:43.177Z,428
2018-07-26T11:38:45.277Z,411
2018-07-26T11:39:47.336Z,435
2018-07-26T11:40:49.701Z,446
2018-07-26T11:41:51.772Z,337
2018-07-26T11:42:53.845Z,437
2018-07-26T11:43:55.923Z,397
2018-07-26T11:44:57.993Z,369
2018-07-26T11:46:00.062Z,202
2018-07-26T11:47:02.139Z,92
2018-07-26T11:48:04.500Z,89
2018-07-26T11:49:06.905Z,91
2018-07-26T11:50:09.045Z,99
2018-07-26T11:51:11.043Z,109
2018-07-26T11:52:13.107Z,124
2018-07-26T11:53:15.186Z,413
2018-07-26T11:54:17.254Z,415
2018-07-26T11:55:19.320Z,431
2018-07-26T11:56:21.402Z,392
2018-07-26T11:57:24.243Z,406
2018-07-26T11:58:26.321Z,417
2018-07-26T11:59:28.402Z,429
2018-07-26T12:00:30.459Z,467
2018-07-26T12:01:32.569Z,465
2018-07-26T12:02:34.622Z,435
2018-07-26T12:03:36.670Z,465
2018-07-26T12:04:38.762Z,498
2018-07-26T12:05:40.841Z,471
2018-07-26T12:06:42.915Z,468
2018-07-26T12:07:44.983Z,472
2018-07-26T12:08:47.088Z,450
2018-07-26T12:09:49.440Z,430
2018-07-26T12:10:51.512Z,445
2018-07-26T12:11:53.694Z,436
2018-07-26T12:12:55.773Z,459
2018-07-26T12:13:57.835Z,493
2018-07-26T12:14:59.904Z,445
2018-07-26T12:16:01.980Z,411
2018-07-26T12:17:04.039Z,441
2018-07-26T12:18:06.118Z,480
2018-07-26T12:19:08.181Z,473
2018-07-26T12:20:10.260Z,472
2018-07-26T12:21:12.333Z,453
2018-07-26T12:22:14.394Z,477
2018-07-26T12:23:16.466Z,449
2018-07-26T12:24:18.820Z,444
2018-07-26T12:25:21.276Z,483
2018-07-26T12:26:23.637Z,520
2018-07-26T12:27:25.705Z,479
2018-07-26T12:28:28.052Z,450
2018-07-26T12:29:30.137Z,422
2018-07-26T12:30:32.204Z,407
2018-07-26T12:31:34.274Z,370
2018-07-26T12:32:36.348Z,124
2018-07-26T12:33:38.414Z,116
2018-07-26T12:34:40.488Z,105
2018-07-26T12:35:42.561Z,101
2018-07-26T12:36:44.932Z,97
2018-07-26T12:37:47.289Z,96
2018-07-26T12:38:49.366Z,99
2018-07-26T12:39:51.718Z,100
2018-07-26T12:40:53.782Z,103
2018-07-26T12:41:56.259Z,105
2018-07-26T12:42:58.316Z,110
2018-07-26T12:44:00.386Z,119
2018-07-26T12:45:02.848Z,121
2018-07-26T12:46:05.233Z,160
2018-07-26T12:47:07.585Z,382
2018-07-26T12:48:09.651Z,373
2018-07-26T12:49:12.008Z,376
2018-07-26T12:50:14.068Z,370
2018-07-26T12:51:16.825Z,348
2018-07-26T12:52:19.279Z,347
2018-07-26T12:53:21.340Z,341
2018-07-26T12:54:23.411Z,299
2018-07-26T12:55:25.482Z,367
2018-07-26T12:56:27.552Z,357
2018-07-26T12:57:29.625Z,371
2018-07-26T12:58:31.692Z,375
2018-07-26T12:59:33.758Z,378
2018-07-26T13:00:35.827Z,390
2018-07-26T13:01:38.070Z,347
2018-07-26T13:02:39.964Z,171
2018-07-26T13:03:42.034Z,144
2018-07-26T13:04:44.102Z,155
2018-07-26T13:05:46.166Z,237
2018-07-26T13:06:48.239Z,160
2018-07-26T13:07:50.310Z,153
2018-07-26T13:08:52.692Z,211
2018-07-26T13:09:54.752Z,138
2018-07-26T13:10:56.839Z,357
2018-07-26T13:11:58.909Z,337
2018-07-26T13:13:01.277Z,348
2018-07-26T13:14:03.351Z,360
2018-07-26T13:15:05.692Z,360
2018-07-26T13:16:07.767Z,358
2018-07-26T13:17:10.237Z,380
2018-07-26T13:18:12.306Z,398
2018-07-26T13:19:14.364Z,401
2018-07-26T13:20:16.732Z,403
2018-07-26T13:21:18.802Z,393
2018-07-26T13:22:20.869Z,396
2018-07-26T13:23:22.950Z,397
2018-07-26T13:24:25.018Z,383
2018-07-26T13:25:28.128Z,384
2018-07-26T13:26:30.433Z,372
2018-07-26T13:27:33.160Z,364
2018-07-26T13:28:35.417Z,377
2018-07-26T13:29:38.122Z,362
2018-07-26T13:30:41.452Z,371
2018-07-26T13:31:44.371Z,377
2018-07-26T13:32:47.019Z,375
2018-07-26T13:33:49.578Z,375
2018-07-26T13:34:52.324Z,364
2018-07-26T13:35:55.305Z,373
2018-07-26T13:36:58.538Z,379
2018-07-26T13:38:02.511Z,380
2018-07-26T13:39:04.631Z,358
2018-07-26T13:40:07.327Z,357
2018-07-26T13:41:10.013Z,369
2018-07-26T13:42:12.520Z,354
2018-07-26T13:43:14.991Z,109
2018-07-26T13:44:18.890Z,97
2018-07-26T13:45:22.079Z,85
2018-07-26T13:46:25.888Z,76
2018-07-26T13:47:29.583Z,71
2018-07-26T13:48:31.805Z,68
2018-07-26T13:49:35.310Z,64
2018-07-26T13:50:38.734Z,62
2018-07-26T13:51:41.978Z,62
2018-07-26T13:52:45.320Z,66
2018-07-26T13:53:48.751Z,69
2018-07-26T13:54:51.866Z,70
2018-07-26T13:55:54.475Z,70
2018-07-26T13:56:56.839Z,69
2018-07-26T13:57:59.276Z,68
2018-07-26T13:59:05.309Z,64
2018-07-26T14:00:09.552Z,62
2018-07-26T14:01:18.333Z,61
2018-07-26T14:02:20.669Z,63
2018-07-26T14:03:22.941Z,67
2018-07-26T14:04:25.844Z,74
2018-07-26T14:05:29.100Z,85
2018-07-26T14:06:35.647Z,93
2018-07-26T14:07:38.279Z,100
2018-07-26T14:08:40.873Z,106
2018-07-26T14:09:44.175Z,292
2018-07-26T14:10:47.971Z,240
2018-07-26T14:11:50.674Z,276
2018-07-26T14:12:53.387Z,275
2018-07-26T14:13:57.156Z,256
2018-07-26T14:15:00.419Z,262
2018-07-26T14:16:03.383Z,289
2018-07-26T14:17:05.524Z,313
2018-07-26T14:18:09.465Z,298
2018-07-26T14:19:11.975Z,280
2018-07-26T14:20:15.358Z,287
2018-07-26T14:21:17.441Z,280
2018-07-26T14:22:20.146Z,237
2018-07-26T14:23:22.815Z,296
2018-07-26T14:24:25.176Z,285
2018-07-26T14:25:27.246Z,299
2018-07-26T14:26:29.304Z,302
2018-07-26T14:27:31.382Z,315
2018-07-26T14:28:33.450Z,299
2018-07-26T14:29:36.097Z,297
2018-07-26T14:30:38.422Z,306
2018-07-26T14:31:40.478Z,333
2018-07-26T14:32:42.553Z,330
2018-07-26T14:33:44.631Z,312
2018-07-26T14:34:46.992Z,318
2018-07-26T14:35:49.056Z,307
2018-07-26T14:36:51.127Z,308
2018-07-26T14:37:53.194Z,308
2018-07-26T14:38:55.267Z,308
2018-07-26T14:39:57.351Z,298
2018-07-26T14:40:59.423Z,309
2018-07-26T14:42:01.489Z,172
2018-07-26T14:43:03.573Z,116
2018-07-26T14:44:05.648Z,148